createdAt,value
2018-12-21T00:00:23.582Z,3.40
2018-12-21T00:01:23.494Z,3.70
2018-12-21T00:02:23.422Z,3.60
2018-12-21T00:03:23.365Z,4.20
2018-12-21T00:04:23.291Z,3.40
2018-12-21T00:05:23.204Z,3.70
2018-12-21T00:06:23.133Z,3.60
2018-12-21T00:07:23.058Z,4.00
2018-12-21T00:08:22.994Z,4.20
2018-12-21T00:09:22.930Z,3.50
2018-12-21T00:10:22.858Z,9.90
2018-12-21T00:11:22.775Z,10.10
2018-12-21T00:12:22.700Z,12.50
2018-12-21T00:13:22.657Z,15.00
2018-12-21T00:14:22.566Z,14.80
2018-12-21T00:15:22.491Z,17.00
2018-12-21T00:16:22.418Z,16.20
2018-12-21T00:17:22.334Z,16.50
2018-12-21T00:18:22.284Z,18.50
2018-12-21T00:19:22.206Z,16.60
2018-12-21T00:20:22.134Z,18.40
2018-12-21T00:21:22.230Z,18.40
2018-12-21T00:22:22.006Z,16.80
2018-12-21T00:23:21.900Z,18.60
2018-12-21T00:24:21.830Z,17.60
2018-12-21T00:25:21.767Z,19.90
2018-12-21T00:26:21.701Z,19.50
2018-12-21T00:27:21.625Z,19.30
2018-12-21T00:28:21.549Z,17.50
2018-12-21T00:29:21.478Z,17.60
2018-12-21T00:30:21.412Z,18.30
2018-12-21T00:31:21.331Z,17.10
2018-12-21T00:32:21.250Z,16.50
2018-12-21T00:33:21.198Z,15.90
2018-12-21T00:34:21.123Z,16.90
2018-12-21T00:35:21.046Z,15.70
2018-12-21T00:36:20.965Z,17.60
2018-12-21T00:37:20.904Z,17.20
2018-12-21T00:38:20.832Z,16.30
2018-12-21T00:39:20.758Z,15.80
2018-12-21T00:40:20.690Z,18.20
2018-12-21T00:41:20.598Z,14.80
2018-12-21T00:42:20.530Z,15.50
2018-12-21T00:43:20.464Z,16.40
2018-12-21T00:44:22.143Z,16.60
2018-12-21T00:45:20.308Z,16.10
2018-12-21T00:46:20.243Z,15.70
2018-12-21T00:47:20.180Z,15.60
2018-12-21T00:48:20.108Z,15.10
2018-12-21T00:49:20.035Z,14.70
2018-12-21T00:50:19.959Z,15.00
2018-12-21T00:51:19.876Z,20.50
2018-12-21T00:52:19.802Z,15.60
2018-12-21T00:53:19.739Z,17.00
2018-12-21T00:54:19.664Z,17.60
2018-12-21T00:55:19.598Z,14.60
2018-12-21T00:56:19.530Z,15.20
2018-12-21T00:57:19.473Z,16.00
2018-12-21T00:58:19.366Z,15.60
2018-12-21T00:59:19.302Z,19.10
2018-12-21T01:00:19.222Z,18.60
2018-12-21T01:01:19.162Z,19.00
2018-12-21T01:02:19.086Z,18.60
2018-12-21T01:03:19.014Z,17.90
2018-12-21T01:04:18.945Z,19.20
2018-12-21T01:05:18.858Z,16.90
2018-12-21T01:06:18.786Z,17.10
2018-12-21T01:07:18.726Z,17.50
2018-12-21T01:08:18.657Z,15.70
2018-12-21T01:09:18.572Z,18.70
2018-12-21T01:10:18.504Z,18.00
2018-12-21T01:11:18.430Z,16.80
2018-12-21T01:12:18.349Z,16.70
2018-12-21T01:13:18.291Z,19.40
2018-12-21T01:14:18.216Z,16.60
2018-12-21T01:15:18.132Z,18.60
2018-12-21T01:16:18.078Z,18.40
2018-12-21T01:17:18.002Z,17.20
2018-12-21T01:18:17.927Z,18.10
2018-12-21T01:19:17.855Z,19.40
2018-12-21T01:20:17.783Z,16.00
2018-12-21T01:21:17.694Z,17.60
2018-12-21T01:22:17.622Z,16.90
2018-12-21T01:23:17.558Z,17.90
2018-12-21T01:24:17.557Z,16.50
2018-12-21T01:25:17.400Z,15.90
2018-12-21T01:26:17.334Z,16.40
2018-12-21T01:27:17.262Z,16.40
2018-12-21T01:28:17.199Z,15.40
2018-12-21T01:29:17.128Z,13.20
2018-12-21T01:30:17.054Z,12.70
2018-12-21T01:31:16.979Z,18.30
2018-12-21T01:32:16.942Z,14.10
2018-12-21T01:33:16.875Z,13.20
2018-12-21T01:34:16.748Z,15.10
2018-12-21T01:35:16.674Z,13.60
2018-12-21T01:36:16.598Z,14.40
2018-12-21T01:37:16.541Z,11.40
2018-12-21T01:38:16.466Z,14.00
2018-12-21T01:39:16.378Z,13.50
2018-12-21T01:40:16.307Z,12.10
2018-12-21T01:41:16.243Z,11.30
2018-12-21T01:42:16.168Z,11.40
2018-12-21T01:43:16.111Z,11.50
2018-12-21T01:44:16.023Z,11.90
2018-12-21T01:45:15.947Z,9.40
2018-12-21T01:46:15.887Z,14.00
2018-12-21T01:47:15.790Z,10.30
2018-12-21T01:48:15.737Z,11.00
2018-12-21T01:49:15.650Z,9.80
2018-12-21T01:50:15.580Z,11.80
2018-12-21T01:51:15.510Z,11.90
2018-12-21T01:52:15.432Z,11.30
2018-12-21T01:53:15.342Z,11.60
2018-12-21T01:54:15.275Z,11.30
2018-12-21T01:55:15.230Z,10.30
2018-12-21T01:56:15.137Z,10.20
2018-12-21T01:57:15.056Z,11.30
2018-12-21T01:58:14.983Z,11.30
2018-12-21T01:59:14.903Z,10.60
2018-12-21T02:00:14.827Z,11.10
2018-12-21T02:01:14.767Z,10.80
2018-12-21T02:02:14.690Z,10.80
2018-12-21T02:03:14.615Z,11.40
2018-12-21T02:04:14.543Z,12.20
2018-12-21T02:05:14.474Z,11.30
2018-12-21T02:06:14.385Z,13.40
2018-12-21T02:07:14.324Z,15.50
2018-12-21T02:08:14.245Z,15.70
2018-12-21T02:09:14.174Z,14.40
2018-12-21T02:10:14.088Z,13.70
2018-12-21T02:11:14.011Z,12.60
2018-12-21T02:12:13.954Z,12.30
2018-12-21T02:13:13.878Z,11.90
2018-12-21T02:14:13.803Z,13.50
2018-12-21T02:15:13.735Z,13.60
2018-12-21T02:16:13.663Z,12.80
2018-12-21T02:17:13.593Z,14.10
2018-12-21T02:18:13.513Z,12.90
2018-12-21T02:19:13.433Z,14.60
2018-12-21T02:20:13.347Z,14.90
2018-12-21T02:21:13.274Z,12.80
2018-12-21T02:22:13.217Z,13.80
2018-12-21T02:23:13.148Z,12.70
2018-12-21T02:24:13.066Z,14.60
2018-12-21T02:25:13.005Z,15.00
2018-12-21T02:26:12.909Z,14.00
2018-12-21T02:27:12.830Z,15.10
2018-12-21T02:28:12.771Z,13.10
2018-12-21T02:29:12.709Z,16.40
2018-12-21T02:30:12.629Z,14.90
2018-12-21T02:31:12.545Z,13.10
2018-12-21T02:32:12.498Z,12.30
2018-12-21T02:33:12.407Z,11.70
2018-12-21T02:34:12.369Z,13.70
2018-12-21T02:35:12.288Z,16.30
2018-12-21T02:36:12.181Z,11.90
2018-12-21T02:37:12.120Z,12.60
2018-12-21T02:38:12.036Z,13.90
2018-12-21T02:39:11.961Z,14.40
2018-12-21T02:40:11.874Z,16.30
2018-12-21T02:41:11.830Z,12.20
2018-12-21T02:42:11.739Z,15.00
2018-12-21T02:43:11.663Z,13.90
2018-12-21T02:44:11.595Z,14.50
2018-12-21T02:45:11.532Z,13.40
2018-12-21T02:46:11.435Z,14.40
2018-12-21T02:47:11.352Z,12.80
2018-12-21T02:48:11.298Z,14.10
2018-12-21T02:49:11.229Z,15.30
2018-12-21T02:50:11.165Z,13.60
2018-12-21T02:51:11.075Z,13.50
2018-12-21T02:52:10.999Z,13.10
2018-12-21T02:53:10.918Z,16.30
2018-12-21T02:54:10.881Z,14.20
2018-12-21T02:55:10.766Z,15.60
2018-12-21T02:56:10.703Z,14.20
2018-12-21T02:57:10.646Z,16.50
2018-12-21T02:58:10.544Z,14.10
2018-12-21T02:59:10.472Z,15.40
2018-12-21T03:00:10.419Z,15.40
2018-12-21T03:01:10.339Z,14.40
2018-12-21T03:02:10.266Z,13.80
2018-12-21T03:03:10.214Z,15.40
2018-12-21T03:04:10.105Z,15.00
2018-12-21T03:05:10.034Z,15.70
2018-12-21T03:06:09.977Z,13.40
2018-12-21T03:07:09.884Z,14.70
2018-12-21T03:08:09.819Z,12.70
2018-12-21T03:09:09.750Z,13.10
2018-12-21T03:10:09.674Z,15.10
2018-12-21T03:11:09.600Z,10.90
2018-12-21T03:12:09.514Z,13.80
2018-12-21T03:13:09.450Z,15.00
2018-12-21T03:14:09.381Z,12.60
2018-12-21T03:15:09.301Z,12.80
2018-12-21T03:16:09.222Z,16.00
2018-12-21T03:17:09.146Z,13.20
2018-12-21T03:18:09.071Z,14.40
2018-12-21T03:19:09.012Z,12.40
2018-12-21T03:20:08.934Z,14.60
2018-12-21T03:21:08.859Z,14.30
2018-12-21T03:22:14.621Z,14.70
2018-12-21T03:23:08.706Z,15.10
2018-12-21T03:24:08.655Z,16.10
2018-12-21T03:25:08.580Z,20.40
2018-12-21T03:26:08.490Z,16.70
2018-12-21T03:27:08.413Z,15.00
2018-12-21T03:28:08.336Z,16.10
2018-12-21T03:29:08.257Z,15.10
2018-12-21T03:30:08.200Z,16.30
2018-12-21T03:31:08.126Z,16.60
2018-12-21T03:32:08.037Z,15.70
2018-12-21T03:33:07.965Z,15.00
2018-12-21T03:34:07.894Z,14.50
2018-12-21T03:35:07.813Z,13.40
2018-12-21T03:36:07.747Z,14.40
2018-12-21T03:37:07.668Z,11.40
2018-12-21T03:38:07.594Z,12.90
2018-12-21T03:39:07.525Z,12.60
2018-12-21T03:40:07.455Z,13.50
2018-12-21T03:41:07.377Z,13.20
2018-12-21T03:42:07.288Z,13.00
2018-12-21T03:43:07.230Z,13.20
2018-12-21T03:44:07.146Z,12.40
2018-12-21T03:45:07.137Z,12.90
2018-12-21T03:46:07.010Z,11.50
2018-12-21T03:47:06.918Z,12.20
2018-12-21T03:48:06.844Z,12.60
2018-12-21T03:49:06.770Z,12.70
2018-12-21T03:50:06.702Z,11.50
2018-12-21T03:51:06.623Z,11.90
2018-12-21T03:52:06.538Z,13.10
2018-12-21T03:53:06.477Z,13.50
2018-12-21T03:54:06.381Z,13.10
2018-12-21T03:55:06.309Z,11.80
2018-12-21T03:56:06.246Z,11.60
2018-12-21T03:57:06.175Z,13.40
2018-12-21T03:58:06.100Z,11.80
2018-12-21T03:59:06.019Z,14.10
2018-12-21T04:00:05.938Z,13.40
2018-12-21T04:01:05.851Z,12.50
2018-12-21T04:02:05.789Z,11.30
2018-12-21T04:03:05.723Z,11.70
2018-12-21T04:04:05.627Z,12.90
2018-12-21T04:05:05.552Z,11.30
2018-12-21T04:06:05.480Z,13.70
2018-12-21T04:07:05.401Z,12.70
2018-12-21T04:08:05.342Z,13.30
2018-12-21T04:09:05.295Z,14.20
2018-12-21T04:10:05.185Z,15.30
2018-12-21T04:11:05.107Z,15.80
2018-12-21T04:12:05.023Z,14.40
2018-12-21T04:13:04.962Z,13.80
2018-12-21T04:14:04.875Z,14.90
2018-12-21T04:15:04.794Z,16.70
2018-12-21T04:16:04.749Z,16.20
2018-12-21T04:17:04.653Z,16.50
2018-12-21T04:18:04.565Z,16.00
2018-12-21T04:19:04.509Z,16.90
2018-12-21T04:20:04.429Z,16.60
2018-12-21T04:21:04.350Z,17.10
2018-12-21T04:22:04.272Z,16.30
2018-12-21T04:23:04.202Z,15.80
2018-12-21T04:24:04.127Z,14.50
2018-12-21T04:25:04.036Z,15.00
2018-12-21T04:26:03.974Z,13.90
2018-12-21T04:27:03.891Z,14.10
2018-12-21T04:28:03.825Z,13.70
2018-12-21T04:29:03.728Z,13.20
2018-12-21T04:30:03.658Z,15.30
2018-12-21T04:31:03.596Z,13.00
2018-12-21T04:32:03.519Z,13.30
2018-12-21T04:33:03.439Z,13.90
2018-12-21T04:34:03.352Z,14.00
2018-12-21T04:35:03.298Z,13.10
2018-12-21T04:36:03.225Z,15.60
2018-12-21T04:37:03.151Z,14.20
2018-12-21T04:38:03.065Z,14.70
2018-12-21T04:39:03.014Z,13.20
2018-12-21T04:40:02.900Z,14.20
2018-12-21T04:41:02.831Z,14.40
2018-12-21T04:42:02.770Z,13.90
2018-12-21T04:43:02.696Z,16.60
2018-12-21T04:44:02.613Z,13.30
2018-12-21T04:45:02.533Z,12.80
2018-12-21T04:46:02.457Z,15.00
2018-12-21T04:47:02.387Z,14.60
2018-12-21T04:48:02.296Z,16.80
2018-12-21T04:49:02.332Z,13.80
2018-12-21T04:50:02.159Z,14.10
2018-12-21T04:51:02.079Z,13.90
2018-12-21T04:52:02.021Z,12.40
2018-12-21T04:53:01.922Z,13.20
2018-12-21T04:54:01.845Z,12.10
2018-12-21T04:55:01.822Z,13.30
2018-12-21T04:56:01.706Z,14.90
2018-12-21T04:57:01.636Z,12.50
2018-12-21T04:58:01.570Z,13.60
2018-12-21T04:59:01.498Z,13.20
2018-12-21T05:00:01.406Z,13.80
2018-12-21T05:01:01.330Z,13.10
2018-12-21T05:02:01.254Z,13.90
2018-12-21T05:03:01.180Z,12.60
2018-12-21T05:04:01.091Z,14.70
2018-12-21T05:05:01.026Z,13.60
2018-12-21T05:06:00.957Z,13.40
2018-12-21T05:07:00.882Z,13.20
2018-12-21T05:08:00.823Z,14.90
2018-12-21T05:09:00.714Z,12.20
2018-12-21T05:10:00.664Z,18.20
2018-12-21T05:11:00.565Z,13.70
2018-12-21T05:12:00.508Z,13.80
2018-12-21T05:13:00.427Z,14.70
2018-12-21T05:14:00.384Z,14.40
2018-12-21T05:15:00.289Z,17.10
2018-12-21T05:16:00.193Z,14.80
2018-12-21T05:17:00.131Z,15.90
2018-12-21T05:18:00.046Z,16.20
2018-12-21T05:18:59.974Z,16.30
2018-12-21T05:19:59.911Z,18.00
2018-12-21T05:20:59.825Z,20.60
2018-12-21T05:21:59.767Z,22.40
2018-12-21T05:22:59.668Z,22.80
2018-12-21T05:23:59.613Z,25.70
2018-12-21T05:24:59.538Z,28.00
2018-12-21T05:25:59.455Z,29.20
2018-12-21T05:26:59.380Z,28.90
2018-12-21T05:27:59.312Z,28.20
2018-12-21T05:28:59.226Z,30.80
2018-12-21T05:29:59.160Z,30.70
2018-12-21T05:30:59.082Z,31.60
2018-12-21T05:31:58.998Z,35.10
2018-12-21T05:32:58.942Z,32.00
2018-12-21T05:33:58.855Z,32.10
2018-12-21T05:34:58.781Z,34.10
2018-12-21T05:35:58.704Z,35.40
2018-12-21T05:36:58.625Z,35.90
2018-12-21T05:37:58.542Z,39.50
2018-12-21T05:38:58.467Z,37.20
2018-12-21T05:39:58.414Z,35.50
2018-12-21T05:40:58.331Z,36.30
2018-12-21T05:41:58.250Z,37.20
2018-12-21T05:42:58.178Z,36.40
2018-12-21T05:43:58.111Z,31.40
2018-12-21T05:44:58.038Z,29.00
2018-12-21T05:45:57.945Z,28.10
2018-12-21T05:46:57.866Z,26.30
2018-12-21T05:47:57.805Z,23.90
2018-12-21T05:48:57.731Z,23.10
2018-12-21T05:49:57.651Z,20.60
2018-12-21T05:50:57.579Z,18.10
2018-12-21T05:51:57.486Z,17.60
2018-12-21T05:53:00.814Z,15.30
2018-12-21T05:53:57.353Z,14.90
2018-12-21T05:54:57.276Z,17.20
2018-12-21T05:55:57.186Z,13.50
2018-12-21T05:56:57.117Z,17.20
2018-12-21T05:57:57.041Z,14.10
2018-12-21T05:58:56.966Z,16.10
2018-12-21T05:59:56.900Z,15.80
2018-12-21T06:00:56.847Z,17.50
2018-12-21T06:01:56.757Z,17.10
2018-12-21T06:02:56.677Z,17.90
2018-12-21T06:03:56.627Z,16.40
2018-12-21T06:04:56.540Z,16.50
2018-12-21T06:05:56.460Z,15.40
2018-12-21T06:06:56.362Z,18.20
2018-12-21T06:07:56.305Z,17.90
2018-12-21T06:08:56.226Z,19.40
2018-12-21T06:09:56.167Z,29.80
2018-12-21T06:10:56.070Z,27.40
2018-12-21T06:11:55.999Z,25.60
2018-12-21T06:12:55.931Z,25.10
2018-12-21T06:13:55.854Z,22.20
2018-12-21T06:14:55.788Z,21.90
2018-12-21T06:15:55.691Z,21.00
2018-12-21T06:16:55.618Z,21.90
2018-12-21T06:17:55.552Z,20.00
2018-12-21T06:18:55.466Z,20.60
2018-12-21T06:19:55.403Z,21.30
2018-12-21T06:20:55.328Z,19.90
2018-12-21T06:21:55.274Z,21.60
2018-12-21T06:22:55.177Z,22.10
2018-12-21T06:23:55.100Z,21.40
2018-12-21T06:24:55.033Z,22.60
2018-12-21T06:25:54.955Z,23.40
2018-12-21T06:26:54.883Z,26.70
2018-12-21T06:27:54.812Z,30.00
2018-12-21T06:28:54.721Z,28.40
2018-12-21T06:29:54.646Z,27.70
2018-12-21T06:30:54.591Z,27.00
2018-12-21T06:31:54.508Z,28.90
2018-12-21T06:32:54.430Z,27.00
2018-12-21T06:33:54.362Z,26.80
2018-12-21T06:34:54.270Z,25.40
2018-12-21T06:35:54.209Z,27.70
2018-12-21T06:36:54.139Z,26.00
2018-12-21T06:37:54.074Z,27.00
2018-12-21T06:38:53.987Z,27.00
2018-12-21T06:39:53.912Z,29.50
2018-12-21T06:40:53.820Z,27.70
2018-12-21T06:41:53.766Z,26.00
2018-12-21T06:42:53.689Z,26.20
2018-12-21T06:43:53.604Z,25.80
2018-12-21T06:44:53.534Z,26.40
2018-12-21T06:45:53.453Z,25.90
2018-12-21T06:46:53.376Z,26.60
2018-12-21T06:47:53.309Z,26.80
2018-12-21T06:48:53.240Z,25.10
2018-12-21T06:49:53.170Z,25.30
2018-12-21T06:50:53.157Z,24.80
2018-12-21T06:51:53.034Z,26.40
2018-12-21T06:52:52.926Z,25.70
2018-12-21T06:53:52.858Z,26.60
2018-12-21T06:54:52.792Z,26.50
2018-12-21T06:55:52.716Z,23.20
2018-12-21T06:56:52.645Z,23.40
2018-12-21T06:57:52.565Z,22.30
2018-12-21T06:58:52.483Z,22.50
2018-12-21T06:59:52.436Z,25.20
2018-12-21T07:00:52.353Z,24.60
2018-12-21T07:01:52.264Z,24.00
2018-12-21T07:02:52.193Z,23.80
2018-12-21T07:03:52.145Z,22.90
2018-12-21T07:04:52.053Z,24.40
2018-12-21T07:05:51.951Z,21.80
2018-12-21T07:06:51.896Z,27.50
2018-12-21T07:07:51.813Z,24.10
2018-12-21T07:08:51.740Z,25.10
2018-12-21T07:09:51.668Z,26.30
2018-12-21T07:10:51.591Z,24.50
2018-12-21T07:11:51.516Z,22.50
2018-12-21T07:12:51.434Z,21.80
2018-12-21T07:13:51.368Z,22.50
2018-12-21T07:14:51.294Z,23.00
2018-12-21T07:15:51.212Z,22.60
2018-12-21T07:16:51.138Z,22.20
2018-12-21T07:17:51.079Z,22.60
2018-12-21T07:18:50.982Z,22.70
2018-12-21T07:19:50.919Z,21.80
2018-12-21T07:20:50.847Z,22.70
2018-12-21T07:21:50.779Z,24.00
2018-12-21T07:22:50.693Z,24.30
2018-12-21T07:23:50.612Z,23.20
2018-12-21T07:24:50.535Z,25.60
2018-12-21T07:25:50.465Z,23.20
2018-12-21T07:26:50.392Z,24.60
2018-12-21T07:27:50.331Z,25.30
2018-12-21T07:28:50.252Z,22.40
2018-12-21T07:29:50.162Z,22.20
2018-12-21T07:30:50.082Z,22.20
2018-12-21T07:31:50.018Z,23.00
2018-12-21T07:32:49.951Z,23.50
2018-12-21T07:33:49.871Z,19.70
2018-12-21T07:34:49.801Z,20.60
2018-12-21T07:35:49.712Z,21.20
2018-12-21T07:36:49.640Z,20.50
2018-12-21T07:37:49.575Z,24.30
2018-12-21T07:38:49.500Z,19.80
2018-12-21T07:39:49.414Z,20.00
2018-12-21T07:40:49.338Z,19.30
2018-12-21T07:41:49.263Z,18.00
2018-12-21T07:42:49.207Z,20.40
2018-12-21T07:43:49.125Z,19.00
2018-12-21T07:44:49.070Z,20.40
2018-12-21T07:45:48.981Z,19.20
2018-12-21T07:46:48.902Z,17.40
2018-12-21T07:47:48.829Z,19.40
2018-12-21T07:48:48.761Z,17.20
2018-12-21T07:49:48.681Z,17.30
2018-12-21T07:50:48.598Z,18.20
2018-12-21T07:51:48.514Z,18.00
2018-12-21T07:52:48.489Z,19.60
2018-12-21T07:53:48.364Z,22.10
2018-12-21T07:54:48.292Z,17.40
2018-12-21T07:55:48.225Z,21.50
2018-12-21T07:56:48.153Z,22.50
2018-12-21T07:57:48.078Z,19.90
2018-12-21T07:58:47.998Z,23.20
2018-12-21T07:59:47.918Z,17.80
2018-12-21T08:00:47.863Z,20.10
2018-12-21T08:01:47.779Z,20.50
2018-12-21T08:02:47.702Z,18.90
2018-12-21T08:03:47.619Z,18.00
2018-12-21T08:04:47.540Z,21.40
2018-12-21T08:05:47.487Z,19.90
2018-12-21T08:06:47.410Z,21.50
2018-12-21T08:07:47.343Z,16.40
2018-12-21T08:08:47.261Z,16.40
2018-12-21T08:09:47.182Z,20.20
2018-12-21T08:10:47.118Z,19.20
2018-12-21T08:11:47.027Z,19.60
2018-12-21T08:12:46.943Z,18.10
2018-12-21T08:13:46.870Z,16.80
2018-12-21T08:14:46.803Z,16.30
2018-12-21T08:15:46.735Z,17.30
2018-12-21T08:16:46.665Z,16.00
2018-12-21T08:17:46.585Z,15.80
2018-12-21T08:18:46.495Z,23.80
2018-12-21T08:19:46.430Z,19.10
2018-12-21T08:20:46.354Z,16.40
2018-12-21T08:21:46.286Z,15.70
2018-12-21T08:22:46.208Z,16.90
2018-12-21T08:23:46.120Z,15.60
2018-12-21T08:24:47.288Z,20.20
2018-12-21T08:25:46.007Z,18.10
2018-12-21T08:26:45.896Z,21.60
2018-12-21T08:27:45.830Z,20.90
2018-12-21T08:28:45.758Z,19.80
2018-12-21T08:29:45.685Z,22.10
2018-12-21T08:30:45.609Z,24.50
2018-12-21T08:31:45.544Z,29.50
2018-12-21T08:32:45.445Z,30.80
2018-12-21T08:33:45.388Z,26.80
2018-12-21T08:34:45.307Z,28.40
2018-12-21T08:35:45.219Z,29.20
2018-12-21T08:36:45.164Z,29.50
2018-12-21T08:37:45.083Z,28.80
2018-12-21T08:38:44.993Z,30.10
2018-12-21T08:39:44.928Z,32.50
2018-12-21T08:40:44.854Z,31.10
2018-12-21T08:41:45.082Z,29.70
2018-12-21T08:42:44.693Z,32.80
2018-12-21T08:43:44.635Z,31.40
2018-12-21T08:44:44.558Z,31.20
2018-12-21T08:45:44.479Z,32.30
2018-12-21T08:46:44.402Z,30.80
2018-12-21T08:47:44.315Z,31.80
2018-12-21T08:48:44.246Z,28.60
2018-12-21T08:49:44.176Z,32.20
2018-12-21T08:50:44.105Z,31.60
2018-12-21T08:51:44.018Z,34.40
2018-12-21T08:52:43.945Z,32.70
2018-12-21T08:53:43.869Z,31.80
2018-12-21T08:54:43.809Z,30.80
2018-12-21T08:55:43.729Z,30.10
2018-12-21T08:56:43.652Z,27.60
2018-12-21T08:57:43.575Z,32.60
2018-12-21T08:58:43.502Z,30.50
2018-12-21T08:59:43.421Z,30.40
2018-12-21T09:00:43.357Z,30.20
2018-12-21T09:01:43.266Z,37.20
2018-12-21T09:02:43.192Z,39.30
2018-12-21T09:03:43.134Z,35.90
2018-12-21T09:04:43.055Z,35.80
2018-12-21T09:05:43.008Z,36.10
2018-12-21T09:06:42.894Z,35.20
2018-12-21T09:07:42.836Z,36.00
2018-12-21T09:08:42.761Z,36.40
2018-12-21T09:09:42.687Z,36.70
2018-12-21T09:10:42.613Z,42.90
2018-12-21T09:11:42.526Z,37.20
2018-12-21T09:12:42.482Z,37.60
2018-12-21T09:13:42.399Z,40.60
2018-12-21T09:14:42.321Z,39.00
2018-12-21T09:15:42.232Z,35.30
2018-12-21T09:16:42.179Z,34.50
2018-12-21T09:17:42.088Z,27.40
2018-12-21T09:18:42.029Z,30.30
2018-12-21T09:19:41.952Z,30.80
2018-12-21T09:20:41.876Z,30.80
2018-12-21T09:21:41.813Z,33.30
2018-12-21T09:22:41.735Z,32.20
2018-12-21T09:23:41.657Z,35.10
2018-12-21T09:24:41.583Z,34.10
2018-12-21T09:25:41.514Z,30.70
2018-12-21T09:26:41.457Z,32.30
2018-12-21T09:27:41.366Z,31.70
2018-12-21T09:28:41.282Z,31.40
2018-12-21T09:29:41.209Z,30.10
2018-12-21T09:30:41.138Z,29.70
2018-12-21T09:31:41.068Z,32.60
2018-12-21T09:32:40.999Z,32.30
2018-12-21T09:33:40.927Z,27.00
2018-12-21T09:34:40.845Z,27.80
2018-12-21T09:35:40.761Z,24.30
2018-12-21T09:36:40.691Z,27.00
2018-12-21T09:37:40.625Z,26.70
2018-12-21T09:38:40.550Z,24.40
2018-12-21T09:39:40.466Z,25.00
2018-12-21T09:40:40.398Z,23.00
2018-12-21T09:41:40.336Z,23.40
2018-12-21T09:42:40.266Z,23.30
2018-12-21T09:43:40.186Z,25.40
2018-12-21T09:44:40.112Z,20.70
2018-12-21T09:45:40.044Z,19.60
2018-12-21T09:46:39.973Z,19.60
2018-12-21T09:47:39.891Z,20.80
2018-12-21T09:48:39.832Z,19.10
2018-12-21T09:49:39.750Z,18.70
2018-12-21T09:50:39.672Z,19.90
2018-12-21T09:51:39.581Z,20.30
2018-12-21T09:52:39.512Z,21.70
2018-12-21T09:53:39.454Z,18.80
2018-12-21T09:54:39.383Z,21.60
2018-12-21T09:55:39.308Z,23.20
2018-12-21T09:56:39.225Z,21.80
2018-12-21T09:57:39.151Z,21.10
2018-12-21T09:58:39.077Z,22.50
2018-12-21T09:59:39.034Z,21.50
2018-12-21T10:00:38.938Z,24.50
2018-12-21T10:01:38.863Z,22.90
2018-12-21T10:02:38.845Z,24.10
2018-12-21T10:03:38.711Z,21.80
2018-12-21T10:04:38.640Z,21.00
2018-12-21T10:05:38.563Z,21.10
2018-12-21T10:06:38.486Z,22.70
2018-12-21T10:07:38.425Z,20.40
2018-12-21T10:08:38.353Z,20.80
2018-12-21T10:09:38.274Z,22.30
2018-12-21T10:10:38.210Z,22.40
2018-12-21T10:11:38.138Z,19.50
2018-12-21T10:12:38.056Z,19.40
2018-12-21T10:13:37.990Z,21.30
2018-12-21T10:14:37.910Z,22.30
2018-12-21T10:15:37.829Z,20.80
2018-12-21T10:16:37.755Z,22.00
2018-12-21T10:17:37.684Z,23.10
2018-12-21T10:18:37.629Z,21.00
2018-12-21T10:19:37.551Z,20.20
2018-12-21T10:20:37.479Z,21.10
2018-12-21T10:21:37.396Z,22.20
2018-12-21T10:22:37.336Z,23.10
2018-12-21T10:23:37.246Z,25.70
2018-12-21T10:24:37.173Z,25.90
2018-12-21T10:25:37.112Z,25.20
2018-12-21T10:26:37.037Z,22.50
2018-12-21T10:27:36.953Z,22.10
2018-12-21T10:28:36.906Z,24.00
2018-12-21T10:29:36.809Z,23.40
2018-12-21T10:30:36.735Z,22.70
2018-12-21T10:31:36.670Z,22.80
2018-12-21T10:32:36.597Z,23.30
2018-12-21T10:33:36.533Z,21.30
2018-12-21T10:34:36.458Z,21.20
2018-12-21T10:35:36.386Z,22.40
2018-12-21T10:36:36.306Z,20.90
2018-12-21T10:37:36.226Z,19.10
2018-12-21T10:38:36.149Z,19.90
2018-12-21T10:39:36.088Z,18.40
2018-12-21T10:40:36.015Z,19.50
2018-12-21T10:41:35.934Z,20.60
2018-12-21T10:42:35.854Z,20.40
2018-12-21T10:43:35.836Z,22.70
2018-12-21T10:44:35.724Z,23.80
2018-12-21T10:45:41.543Z,22.40
2018-12-21T10:46:35.579Z,23.20
2018-12-21T10:47:35.493Z,24.40
2018-12-21T10:48:37.466Z,24.70
2018-12-21T10:49:35.362Z,26.60
2018-12-21T10:50:35.287Z,23.90
2018-12-21T10:51:35.202Z,24.40
2018-12-21T10:52:35.134Z,32.10
2018-12-21T10:53:35.076Z,34.90
2018-12-21T10:54:34.985Z,35.70
2018-12-21T10:55:34.925Z,29.80
2018-12-21T10:56:34.850Z,29.00
2018-12-21T10:57:34.765Z,29.70
2018-12-21T10:58:34.708Z,28.20
2018-12-21T10:59:34.624Z,29.90
2018-12-21T11:00:34.552Z,29.30
2018-12-21T11:01:34.484Z,27.00
2018-12-21T11:02:34.408Z,28.50
2018-12-21T11:03:34.347Z,29.90
2018-12-21T11:04:34.248Z,30.10
2018-12-21T11:05:34.178Z,31.00
2018-12-21T11:06:34.105Z,29.50
2018-12-21T11:07:34.045Z,31.80
2018-12-21T11:08:33.968Z,29.80
2018-12-21T11:09:33.897Z,31.30
2018-12-21T11:10:33.823Z,28.20
2018-12-21T11:11:33.745Z,31.10
2018-12-21T11:12:33.693Z,31.90
2018-12-21T11:13:33.606Z,28.00
2018-12-21T11:14:33.539Z,25.70
2018-12-21T11:15:33.454Z,25.80
2018-12-21T11:16:33.394Z,26.60
2018-12-21T11:17:33.308Z,24.70
2018-12-21T11:18:33.257Z,23.60
2018-12-21T11:19:33.167Z,26.70
2018-12-21T11:20:33.100Z,25.40
2018-12-21T11:21:33.034Z,26.80
2018-12-21T11:22:32.962Z,25.30
2018-12-21T11:23:32.876Z,20.90
2018-12-21T11:24:35.572Z,21.80
2018-12-21T11:25:32.744Z,21.80
2018-12-21T11:26:32.705Z,21.60
2018-12-21T11:27:32.579Z,20.80
2018-12-21T11:28:32.524Z,24.30
2018-12-21T11:29:32.451Z,24.20
2018-12-21T11:30:32.368Z,22.30
2018-12-21T11:31:32.289Z,21.80
2018-12-21T11:32:32.215Z,20.00
2018-12-21T11:33:32.160Z,20.20
2018-12-21T11:34:32.076Z,20.00
2018-12-21T11:35:32.013Z,19.60
2018-12-21T11:36:31.962Z,22.50
2018-12-21T11:37:31.870Z,18.50
2018-12-21T11:38:31.793Z,18.70
2018-12-21T11:39:31.731Z,19.20
2018-12-21T11:40:31.656Z,19.70
2018-12-21T11:41:31.582Z,19.40
2018-12-21T11:42:31.514Z,18.30
2018-12-21T11:43:31.435Z,19.70
2018-12-21T11:44:31.366Z,18.10
2018-12-21T11:45:31.275Z,18.20
2018-12-21T11:46:31.208Z,17.40
2018-12-21T11:47:31.143Z,16.70
2018-12-21T11:48:31.112Z,17.80
2018-12-21T11:49:31.009Z,18.50
2018-12-21T11:50:30.935Z,17.10
2018-12-21T11:51:30.865Z,19.30
2018-12-21T11:52:30.779Z,16.70
2018-12-21T11:53:30.716Z,17.50
2018-12-21T11:54:30.648Z,17.50
2018-12-21T11:55:30.561Z,18.00
2018-12-21T11:56:30.498Z,17.30
2018-12-21T11:57:30.431Z,15.50
2018-12-21T11:58:30.349Z,15.40
2018-12-21T11:59:30.290Z,16.50
2018-12-21T12:00:30.216Z,15.60
2018-12-21T12:01:30.175Z,15.90
2018-12-21T12:02:30.071Z,17.80
2018-12-21T12:03:30.004Z,22.80
2018-12-21T12:04:29.942Z,22.90
2018-12-21T12:05:29.882Z,22.20
2018-12-21T12:06:29.790Z,20.60
2018-12-21T12:07:29.713Z,20.70
2018-12-21T12:08:29.631Z,19.50
2018-12-21T12:09:29.571Z,18.00
2018-12-21T12:10:29.510Z,17.10
2018-12-21T12:11:29.519Z,17.70
2018-12-21T12:12:29.364Z,18.40
2018-12-21T12:13:29.295Z,16.20
2018-12-21T12:14:29.216Z,15.70
2018-12-21T12:15:29.138Z,15.30
2018-12-21T12:16:29.069Z,15.40
2018-12-21T12:17:29.004Z,17.10
2018-12-21T12:18:28.938Z,16.60
2018-12-21T12:19:28.851Z,18.10
2018-12-21T12:20:28.786Z,15.40
2018-12-21T12:21:28.740Z,16.80
2018-12-21T12:22:28.642Z,16.40
2018-12-21T12:23:28.583Z,17.20
2018-12-21T12:24:28.511Z,16.90
2018-12-21T12:25:28.439Z,16.30
2018-12-21T12:26:28.368Z,16.80
2018-12-21T12:27:28.297Z,16.90
2018-12-21T12:28:28.232Z,15.90
2018-12-21T12:29:28.143Z,16.70
2018-12-21T12:30:28.098Z,15.50
2018-12-21T12:31:28.010Z,17.00
2018-12-21T12:32:27.950Z,15.90
2018-12-21T12:33:27.859Z,16.60
2018-12-21T12:34:27.794Z,17.00
2018-12-21T12:35:27.735Z,16.00
2018-12-21T12:36:27.671Z,16.00
2018-12-21T12:37:27.599Z,16.20
2018-12-21T12:38:27.519Z,15.90
2018-12-21T12:39:27.457Z,15.50
2018-12-21T12:40:27.364Z,16.20
2018-12-21T12:41:27.299Z,16.30
2018-12-21T12:42:27.247Z,16.60
2018-12-21T12:43:27.162Z,15.70
2018-12-21T12:44:27.099Z,15.70
2018-12-21T12:45:27.022Z,15.30
2018-12-21T12:46:26.954Z,16.20
2018-12-21T12:47:26.877Z,15.60
2018-12-21T12:48:26.813Z,16.90
2018-12-21T12:49:27.948Z,15.50
2018-12-21T12:50:26.673Z,16.30
2018-12-21T12:51:26.630Z,15.80
2018-12-21T12:52:26.518Z,16.10